Time;durP1;ratioP1;P1;durP2;ratioP2;P2;SDS_P1;SDS_P2;PMS_P1;PMS_P2;Temp;Humidity;BMP_temperature;BMP_pressure;BME280_temperature;BME280_humidity;BME280_pressure;Samples;Min_cycle;Max_cycle;Signal;HPM_P1;HPM_P2
2023/03/03 00:01:09;;;;;;;6.85;3.70;;;3.10;83.70;;;;;;5100355;27;20081;-68
2023/03/03 00:03:35;;;;;;;13.65;6.15;;;3.10;83.20;;;;;;5100636;27;20024;-67
2023/03/03 00:06:03;;;;;;;10.35;4.97;;;3.10;83.50;;;;;;5099422;28;20032;-68
2023/03/03 00:08:28;;;;;;;8.38;4.03;;;3.00;83.50;;;;;;5094064;28;20125;-68
2023/03/03 00:10:54;;;;;;;7.85;3.50;;;3.00;83.50;;;;;;5094049;27;20513;-68
2023/03/03 00:13:25;;;;;;;8.55;4.65;;;3.10;83.40;;;;;;5101262;27;20610;-68
2023/03/03 00:15:51;;;;;;;11.65;4.55;;;3.00;83.60;;;;;;5097173;27;20035;-68
2023/03/03 00:18:21;;;;;;;11.82;4.70;;;3.00;83.60;;;;;;5100333;27;20019;-68
2023/03/03 00:20:52;;;;;;;11.57;4.60;;;3.00;83.60;;;;;;5101648;27;20493;-68
2023/03/03 00:23:37;;;;;;;10.45;5.10;;;2.90;84.00;;;;;;5106905;27;20063;-68
2023/03/03 00:26:17;;;;;;;7.47;3.88;;;2.90;84.00;;;;;;5092255;28;20023;-68
2023/03/03 00:28:50;;;;;;;9.63;4.28;;;2.90;83.80;;;;;;5101609;27;20359;-68
2023/03/03 00:31:34;;;;;;;12.35;5.28;;;3.00;83.60;;;;;;5103938;27;20478;-68
2023/03/03 00:34:25;;;;;;;10.32;5.03;;;3.00;84.00;;;;;;5101000;27;20099;-68
2023/03/03 00:36:54;;;;;;;9.90;4.88;;;2.90;83.80;;;;;;5100212;28;20532;-67
2023/03/03 00:39:38;;;;;;;10.60;4.75;;;2.90;83.80;;;;;;5101759;27;20027;-68
2023/03/03 00:42:14;;;;;;;11.07;4.28;;;2.80;84.10;;;;;;5101354;28;20038;-68
2023/03/03 00:44:47;;;;;;;10.27;4.72;;;2.90;84.00;;;;;;5100075;28;20058;-68
2023/03/03 00:47:28;;;;;;;7.80;3.55;;;2.90;83.90;;;;;;5092514;28;20067;-68
2023/03/03 00:50:04;;;;;;;9.73;5.45;;;2.90;83.80;;;;;;5103759;27;20718;-68
2023/03/03 00:52:30;;;;;;;8.93;4.03;;;2.90;84.10;;;;;;5104569;28;20109;-68
2023/03/03 00:54:55;;;;;;;11.60;5.90;;;2.80;84.00;;;;;;5101529;28;20436;-68
2023/03/03 00:57:21;;;;;;;12.52;4.70;;;2.80;84.50;;;;;;5095783;28;20047;-68
2023/03/03 00:59:46;;;;;;;9.73;4.32;;;2.70;84.50;;;;;;5102743;28;20032;-68
2023/03/03 01:02:12;;;;;;;10.15;4.32;;;2.70;84.40;;;;;;5103389;28;20024;-68
2023/03/03 01:04:39;;;;;;;8.30;3.90;;;2.70;84.40;;;;;;5099637;28;20080;-68
2023/03/03 01:07:04;;;;;;;10.38;5.00;;;2.80;84.30;;;;;;5097712;28;20057;-68
2023/03/03 01:09:30;;;;;;;10.82;4.70;;;2.70;84.10;;;;;;5099237;27;20020;-68
2023/03/03 01:11:56;;;;;;;9.60;4.40;;;2.60;84.30;;;;;;5100320;27;20030;-68
2023/03/03 01:14:21;;;;;;;11.18;4.45;;;2.60;84.40;;;;;;5101946;28;20445;-68
2023/03/03 01:16:49;;;;;;;9.20;4.18;;;2.60;84.60;;;;;;5093630;28;20051;-68
2023/03/03 01:19:14;;;;;;;8.75;4.10;;;2.60;84.70;;;;;;5107915;28;20489;-68
2023/03/03 01:21:40;;;;;;;8.38;3.90;;;2.60;84.60;;;;;;5105530;27;20024;-67
2023/03/03 01:24:05;;;;;;;10.68;4.00;;;2.60;84.40;;;;;;5101779;28;20442;-68
2023/03/03 01:26:31;;;;;;;7.53;3.58;;;2.50;84.30;;;;;;5100393;27;20028;-68
2023/03/03 01:28:56;;;;;;;6.93;3.65;;;2.60;84.50;;;;;;5099480;28;20027;-68
2023/03/03 01:31:22;;;;;;;7.55;3.67;;;2.60;84.40;;;;;;5099015;28;20048;-68
2023/03/03 01:33:47;;;;;;;7.03;3.22;;;2.60;84.30;;;;;;5096953;28;20031;-68
2023/03/03 01:36:13;;;;;;;7.13;3.50;;;2.60;84.20;;;;;;5102449;28;20039;-68
2023/03/03 01:38:39;;;;;;;8.90;4.30;;;2.60;84.10;;;;;;5100829;27;20550;-68
2023/03/03 01:41:05;;;;;;;7.30;3.22;;;2.60;84.40;;;;;;5104413;27;20532;-68
2023/03/03 01:43:32;;;;;;;6.63;3.33;;;2.60;84.40;;;;;;5102983;27;20103;-68
2023/03/03 01:45:57;;;;;;;6.10;2.80;;;2.60;84.40;;;;;;5106202;27;20027;-68
2023/03/03 01:48:33;;;;;;;8.25;3.55;;;2.70;84.40;;;;;;5104870;28;20027;-68
2023/03/03 01:50:58;;;;;;;6.22;3.30;;;2.70;84.30;;;;;;5100749;27;20071;-68
2023/03/03 01:53:35;;;;;;;6.32;3.00;;;2.70;84.30;;;;;;5101107;28;20069;-68
2023/03/03 01:56:02;;;;;;;7.22;3.45;;;2.80;84.10;;;;;;5100964;28;20028;-68
2023/03/03 01:58:36;;;;;;;8.57;4.00;;;2.90;83.90;;;;;;5099442;28;20048;-68
2023/03/03 02:01:06;;;;;;;9.50;4.10;;;2.80;83.80;;;;;;5103490;28;20485;-68
2023/03/03 02:03:32;;;;;;;8.90;4.00;;;2.80;84.10;;;;;;5099987;27;20024;-67
2023/03/03 02:06:03;;;;;;;8.52;3.97;;;2.80;84.60;;;;;;5110159;27;20039;-67
2023/03/03 02:09:07;;;;;;;8.23;3.83;;;2.80;84.50;;;;;;5096745;27;20028;-67
2023/03/03 02:11:36;;;;;;;7.20;3.85;;;2.80;84.30;;;;;;5079465;28;20041;-67
2023/03/03 02:14:02;;;;;;;8.77;3.90;;;2.80;84.10;;;;;;5077960;28;20029;-68
2023/03/03 02:16:27;;;;;;;6.95;3.22;;;2.90;84.10;;;;;;5088084;28;20410;-67
2023/03/03 02:18:53;;;;;;;6.75;2.58;;;3.00;84.00;;;;;;5099520;28;20049;-67
2023/03/03 02:21:21;;;;;;;8.73;4.13;;;3.00;83.70;;;;;;5101167;28;20429;-67
2023/03/03 02:23:55;;;;;;;8.20;4.00;;;3.10;83.60;;;;;;5097069;27;20081;-68
2023/03/03 02:26:30;;;;;;;8.40;3.78;;;3.00;83.50;;;;;;5104613;27;20085;-68
2023/03/03 02:28:55;;;;;;;6.78;3.22;;;3.10;83.40;;;;;;5096869;28;20074;-68
2023/03/03 02:31:24;;;;;;;7.53;3.20;;;3.00;83.20;;;;;;5096186;28;20650;-68
2023/03/03 02:33:52;;;;;;;7.05;3.35;;;3.00;83.30;;;;;;5098035;27;20038;-68
2023/03/03 02:36:24;;;;;;;8.45;3.65;;;3.00;83.30;;;;;;5097269;27;20408;-68
2023/03/03 02:39:25;;;;;;;8.02;3.80;;;3.00;83.20;;;;;;5101177;28;20865;-68
2023/03/03 02:42:00;;;;;;;7.60;3.45;;;3.00;83.30;;;;;;5092799;28;20040;-68
2023/03/03 02:44:29;;;;;;;9.48;3.53;;;2.90;83.80;;;;;;5101587;27;20031;-68
2023/03/03 02:46:56;;;;;;;8.20;4.10;;;2.90;84.40;;;;;;5098328;28;20511;-68
2023/03/03 02:49:24;;;;;;;7.72;3.40;;;2.90;83.80;;;;;;5106020;27;20019;-68
2023/03/03 02:51:50;;;;;;;10.73;4.10;;;2.90;83.90;;;;;;5103208;28;20448;-67
2023/03/03 02:54:18;;;;;;;8.68;4.15;;;2.80;84.20;;;;;;5102859;27;20054;-67
2023/03/03 02:56:44;;;;;;;13.88;6.25;;;2.80;84.40;;;;;;5097195;28;20094;-68
2023/03/03 02:59:10;;;;;;;10.07;4.20;;;2.70;84.80;;;;;;5098530;28;20055;-68
2023/03/03 03:01:36;;;;;;;7.60;3.58;;;2.80;84.70;;;;;;5098395;28;20367;-68
2023/03/03 03:04:06;;;;;;;7.85;3.80;;;2.90;84.50;;;;;;5103725;27;20023;-68
2023/03/03 03:06:31;;;;;;;6.63;2.97;;;3.00;84.30;;;;;;5097839;27;20039;-68
2023/03/03 03:08:57;;;;;;;8.75;4.45;;;3.00;84.00;;;;;;5101187;28;20036;-68
2023/03/03 03:11:23;;;;;;;9.45;4.13;;;3.00;83.90;;;;;;5100785;28;20020;-67
2023/03/03 03:13:49;;;;;;;9.35;3.63;;;3.00;83.90;;;;;;5103256;27;20013;-68
2023/03/03 03:16:14;;;;;;;8.35;4.13;;;3.00;83.70;;;;;;5102257;27;20500;-68
2023/03/03 03:18:40;;;;;;;9.65;4.20;;;3.00;83.70;;;;;;5100151;28;20674;-68
2023/03/03 03:21:08;;;;;;;8.27;3.85;;;3.00;83.70;;;;;;5096573;28;20020;-68
2023/03/03 03:23:35;;;;;;;6.47;3.15;;;3.10;83.60;;;;;;5096893;27;20082;-68
2023/03/03 03:26:00;;;;;;;7.82;3.30;;;3.10;83.40;;;;;;5100193;27;20027;-68
2023/03/03 03:28:26;;;;;;;8.82;3.85;;;3.20;83.30;;;;;;5098767;28;21110;-68
2023/03/03 03:30:51;;;;;;;7.63;3.47;;;3.10;83.10;;;;;;5099307;28;20058;-68
2023/03/03 03:33:17;;;;;;;8.45;4.28;;;3.10;83.20;;;;;;5100226;27;20024;-68
2023/03/03 03:35:45;;;;;;;9.55;4.05;;;3.10;83.20;;;;;;5100335;27;20019;-68
2023/03/03 03:38:11;;;;;;;7.43;3.60;;;3.10;83.70;;;;;;5103009;27;20020;-68
2023/03/03 03:40:37;;;;;;;9.95;3.95;;;3.10;83.70;;;;;;5099577;27;20825;-68
2023/03/03 03:43:03;;;;;;;9.10;3.55;;;3.10;83.60;;;;;;5102752;27;20115;-68
2023/03/03 03:45:28;;;;;;;11.25;4.25;;;3.20;83.50;;;;;;5104391;27;20031;-67
2023/03/03 03:47:54;;;;;;;8.45;4.00;;;3.20;83.40;;;;;;5102241;28;20023;-68
2023/03/03 03:50:20;;;;;;;8.23;3.42;;;3.20;83.30;;;;;;5098829;27;20035;-68
2023/03/03 03:52:45;;;;;;;11.27;4.55;;;3.30;83.20;;;;;;5094772;28;20445;-68
2023/03/03 03:55:11;;;;;;;9.85;3.90;;;3.20;83.00;;;;;;5100582;28;20111;-68
2023/03/03 03:57:37;;;;;;;9.63;4.25;;;3.30;83.10;;;;;;5095980;28;20073;-68
2023/03/03 04:00:04;;;;;;;10.85;4.55;;;3.20;83.30;;;;;;5097593;27;20066;-68
2023/03/03 04:02:30;;;;;;;9.82;4.20;;;3.20;83.30;;;;;;5095643;27;20545;-68
2023/03/03 04:04:55;;;;;;;8.73;4.13;;;3.20;83.20;;;;;;5099506;27;20114;-68
2023/03/03 04:07:21;;;;;;;9.95;4.00;;;3.30;83.10;;;;;;5101356;27;20516;-68
2023/03/03 04:09:47;;;;;;;11.20;4.10;;;3.30;83.00;;;;;;5102818;27;20030;-67
2023/03/03 04:12:12;;;;;;;9.07;4.05;;;3.30;83.00;;;;;;5105324;27;20750;-67
2023/03/03 04:14:38;;;;;;;10.40;4.13;;;3.30;83.00;;;;;;5108991;27;20023;-68
2023/03/03 04:17:03;;;;;;;7.70;3.13;;;3.30;82.90;;;;;;5098685;28;20032;-67
2023/03/03 04:19:29;;;;;;;5.38;2.95;;;3.30;82.80;;;;;;5098004;27;20062;-68
2023/03/03 04:21:54;;;;;;;9.50;4.03;;;3.30;82.80;;;;;;5095876;28;20111;-67
2023/03/03 04:24:20;;;;;;;7.57;3.45;;;3.40;82.70;;;;;;5100260;28;20024;-68
2023/03/03 04:26:45;;;;;;;8.57;3.42;;;3.40;82.60;;;;;;5097637;28;20031;-68
2023/03/03 04:29:11;;;;;;;10.45;4.55;;;3.40;82.60;;;;;;5106046;27;20028;-67
2023/03/03 04:31:36;;;;;;;8.32;3.90;;;3.30;82.60;;;;;;5099694;27;20012;-67
2023/03/03 04:34:02;;;;;;;11.40;4.72;;;3.30;82.80;;;;;;5104913;27;20036;-67
2023/03/03 04:36:28;;;;;;;9.27;3.83;;;3.30;82.90;;;;;;5096915;28;20071;-67
2023/03/03 04:38:53;;;;;;;9.48;3.63;;;3.20;82.90;;;;;;5094793;28;20405;-68
2023/03/03 04:41:19;;;;;;;9.98;3.83;;;3.20;83.10;;;;;;5102950;27;20073;-68
2023/03/03 04:43:44;;;;;;;12.75;5.20;;;3.20;83.10;;;;;;5097734;28;20027;-68
2023/03/03 04:46:10;;;;;;;9.63;3.75;;;3.20;83.10;;;;;;5097341;28;20039;-67
2023/03/03 04:48:35;;;;;;;11.38;4.25;;;3.20;83.10;;;;;;5102079;28;20554;-67
2023/03/03 04:51:01;;;;;;;9.63;3.85;;;3.20;83.40;;;;;;5099699;27;20042;-67
2023/03/03 04:53:27;;;;;;;8.90;4.22;;;3.10;83.40;;;;;;5094331;28;20063;-67
2023/03/03 04:55:53;;;;;;;11.65;4.63;;;3.20;83.50;;;;;;5099928;28;20020;-67
2023/03/03 04:58:19;;;;;;;9.13;3.78;;;3.20;83.50;;;;;;5099552;28;20043;-68
2023/03/03 05:00:53;;;;;;;7.88;3.40;;;3.30;83.40;;;;;;5101942;28;20031;-68
2023/03/03 05:03:19;;;;;;;8.02;3.10;;;3.30;83.20;;;;;;5105453;28;20801;-68
2023/03/03 05:05:46;;;;;;;7.45;3.30;;;3.30;83.10;;;;;;5097716;28;20073;-67
2023/03/03 05:08:12;;;;;;;8.45;3.30;;;3.40;82.90;;;;;;5103748;28;20086;-68
2023/03/03 05:10:38;;;;;;;8.13;3.17;;;3.50;82.80;;;;;;5099568;28;20043;-68
2023/03/03 05:13:04;;;;;;;6.85;2.97;;;3.50;82.60;;;;;;5100363;28;20019;-68
2023/03/03 05:15:30;;;;;;;9.68;3.35;;;3.50;82.40;;;;;;5097102;28;20060;-68
2023/03/03 05:17:56;;;;;;;11.05;4.60;;;3.50;82.40;;;;;;5104280;28;20012;-68
2023/03/03 05:20:22;;;;;;;13.57;4.85;;;3.40;82.50;;;;;;5097733;28;20448;-68
2023/03/03 05:22:48;;;;;;;9.80;3.95;;;3.40;82.60;;;;;;5101053;28;20023;-68
2023/03/03 05:25:13;;;;;;;10.10;4.40;;;3.40;82.80;;;;;;5099444;27;20020;-68
2023/03/03 05:27:39;;;;;;;9.32;4.22;;;3.30;82.80;;;;;;5104767;27;20374;-68
2023/03/03 05:30:05;;;;;;;10.23;4.07;;;3.30;82.90;;;;;;5100544;28;20096;-68
2023/03/03 05:32:31;;;;;;;9.73;3.90;;;3.20;83.20;;;;;;5097627;28;20042;-68
2023/03/03 05:34:57;;;;;;;7.38;3.40;;;3.20;83.30;;;;;;5096684;28;20028;-68
2023/03/03 05:37:23;;;;;;;6.43;3.15;;;3.20;83.30;;;;;;5106113;27;20019;-68
2023/03/03 05:39:49;;;;;;;7.55;2.90;;;3.20;83.30;;;;;;5103005;27;20076;-68
2023/03/03 05:42:14;;;;;;;5.28;2.90;;;3.20;83.30;;;;;;5103086;28;20027;-68
2023/03/03 05:44:40;;;;;;;8.20;3.53;;;3.30;83.20;;;;;;5104427;28;20053;-67
2023/03/03 05:47:06;;;;;;;8.43;3.10;;;3.30;83.50;;;;;;5104512;27;20392;-68
2023/03/03 05:49:31;;;;;;;6.57;3.00;;;3.30;83.10;;;;;;5101598;28;20031;-67
2023/03/03 05:51:58;;;;;;;5.00;2.33;;;3.30;83.20;;;;;;5102891;28;20023;-67
2023/03/03 05:54:23;;;;;;;8.15;3.25;;;3.30;83.10;;;;;;5103130;28;20077;-67
2023/03/03 05:56:49;;;;;;;7.20;3.00;;;3.20;83.20;;;;;;5103748;27;20513;-67
2023/03/03 05:59:15;;;;;;;5.10;2.38;;;3.10;83.50;;;;;;5100969;27;20035;-67
2023/03/03 06:01:40;;;;;;;5.35;2.42;;;3.20;83.60;;;;;;5103991;27;20027;-68
2023/03/03 06:04:06;;;;;;;5.13;2.60;;;3.20;83.50;;;;;;5103381;27;20036;-68
2023/03/03 06:06:31;;;;;;;6.40;2.78;;;3.30;83.50;;;;;;5108227;27;20027;-67
2023/03/03 06:08:57;;;;;;;4.05;2.35;;;3.30;83.20;;;;;;5093378;28;20028;-67
2023/03/03 06:11:23;;;;;;;4.72;2.40;;;3.30;83.10;;;;;;5103311;28;20164;-68
2023/03/03 06:13:48;;;;;;;5.78;2.55;;;3.40;82.90;;;;;;5102208;28;20034;-67
2023/03/03 06:16:14;;;;;;;7.53;2.70;;;3.40;82.80;;;;;;5098712;28;20019;-68
2023/03/03 06:18:39;;;;;;;5.88;2.80;;;3.40;82.80;;;;;;5094790;27;20039;-68
2023/03/03 06:21:05;;;;;;;5.13;2.63;;;3.30;82.80;;;;;;5102738;27;20036;-68
2023/03/03 06:23:30;;;;;;;4.72;2.22;;;3.30;83.20;;;;;;5098463;27;20032;-68
2023/03/03 06:25:57;;;;;;;6.28;2.97;;;3.30;82.90;;;;;;5106254;27;20512;-68
2023/03/03 06:28:23;;;;;;;4.70;2.53;;;3.40;82.90;;;;;;5107448;27;20502;-67
2023/03/03 06:30:53;;;;;;;5.78;2.88;;;3.30;82.80;;;;;;5103385;27;20019;-68
2023/03/03 06:33:19;;;;;;;6.28;3.13;;;3.30;82.90;;;;;;5104839;27;20020;-68
2023/03/03 06:35:49;;;;;;;7.90;3.33;;;3.30;82.90;;;;;;5098589;27;20024;-68
2023/03/03 06:38:14;;;;;;;5.43;2.75;;;3.30;83.00;;;;;;5109886;27;20673;-68
2023/03/03 06:40:40;;;;;;;6.60;2.75;;;3.40;82.90;;;;;;5103062;27;20038;-68
2023/03/03 06:43:05;;;;;;;5.15;2.22;;;3.30;82.90;;;;;;5092927;28;20028;-67
2023/03/03 06:45:31;;;;;;;4.80;2.55;;;3.30;83.00;;;;;;5102400;27;20028;-68
2023/03/03 06:47:56;;;;;;;5.85;2.80;;;3.30;83.10;;;;;;5096214;27;20398;-68
2023/03/03 06:50:22;;;;;;;6.25;3.13;;;3.40;83.10;;;;;;5101575;27;20132;-68
2023/03/03 06:52:48;;;;;;;6.50;2.97;;;3.30;83.10;;;;;;5104605;27;20031;-68
2023/03/03 06:55:21;;;;;;;6.50;2.75;;;3.30;83.00;;;;;;5105721;27;20019;-68
2023/03/03 06:57:47;;;;;;;5.82;2.65;;;3.30;83.10;;;;;;5096894;27;20024;-68
2023/03/03 07:00:16;;;;;;;6.63;2.92;;;3.30;83.20;;;;;;5102964;28;20024;-68
2023/03/03 07:02:42;;;;;;;6.00;2.40;;;3.30;83.30;;;;;;5097306;27;20032;-68
2023/03/03 07:05:17;;;;;;;6.45;2.90;;;3.20;83.50;;;;;;5099944;28;20027;-68
2023/03/03 07:07:43;;;;;;;3.92;2.20;;;3.30;83.60;;;;;;5098307;27;20133;-68
2023/03/03 07:10:35;;;;;;;5.18;2.60;;;3.40;83.60;;;;;;5100667;28;20444;-68
2023/03/03 07:13:25;;;;;;;5.18;2.47;;;3.40;83.20;;;;;;5095554;28;20036;-68
2023/03/03 07:15:53;;;;;;;8.10;3.35;;;3.40;83.20;;;;;;5102583;28;20077;-68
2023/03/03 07:18:32;;;;;;;5.25;2.25;;;3.30;83.70;;;;;;5100930;27;20028;-68
2023/03/03 07:20:59;;;;;;;7.47;3.10;;;3.30;83.70;;;;;;5095563;28;20051;-68
2023/03/03 07:23:41;;;;;;;5.18;2.10;;;3.30;84.80;;;;;;5100620;28;20036;-68
2023/03/03 07:26:15;;;;;;;3.40;2.00;;;3.30;84.60;;;;;;5101451;27;20028;-68
2023/03/03 07:28:45;;;;;;;4.63;2.00;;;3.30;84.60;;;;;;5098162;28;20028;-67
2023/03/03 07:31:35;;;;;;;3.17;1.55;;;3.30;84.60;;;;;;5100109;27;20024;-67
2023/03/03 07:34:03;;;;;;;4.15;2.00;;;3.40;84.50;;;;;;5097739;27;20080;-68
2023/03/03 07:36:39;;;;;;;3.10;1.70;;;3.40;84.40;;;;;;5094523;28;20027;-68
2023/03/03 07:39:34;;;;;;;2.60;1.67;;;3.50;84.30;;;;;;5098865;28;20038;-68
2023/03/03 07:42:24;;;;;;;5.07;2.08;;;3.50;84.10;;;;;;5099463;28;20565;-68
2023/03/03 07:44:52;;;;;;;3.38;1.80;;;3.50;84.10;;;;;;5099955;27;20027;-68
2023/03/03 07:47:22;;;;;;;3.80;2.42;;;3.60;84.10;;;;;;5095887;27;20478;-67
2023/03/03 07:49:49;;;;;;;2.65;1.75;;;3.60;84.10;;;;;;5099590;28;20537;-67
2023/03/03 07:52:27;;;;;;;3.63;1.95;;;3.60;84.00;;;;;;5099652;27;20024;-67
2023/03/03 07:54:55;;;;;;;3.72;2.00;;;3.60;84.10;;;;;;5101110;27;20353;-67
2023/03/03 07:57:23;;;;;;;4.13;1.85;;;3.60;84.20;;;;;;5096853;27;20019;-68
2023/03/03 07:59:52;;;;;;;3.72;1.73;;;3.60;84.40;;;;;;5097374;27;20032;-68
2023/03/03 08:02:36;;;;;;;3.03;1.75;;;3.50;84.60;;;;;;5096319;27;20149;-68
2023/03/03 08:05:27;;;;;;;3.90;2.03;;;3.60;84.70;;;;;;5096865;27;20047;-68
2023/03/03 08:08:01;;;;;;;3.53;1.58;;;3.60;84.60;;;;;;5096473;28;20080;-67
2023/03/03 08:10:46;;;;;;;2.95;1.70;;;3.60;84.70;;;;;;5097048;27;20030;-67
2023/03/03 08:13:16;;;;;;;4.38;2.35;;;3.60;85.40;;;;;;5095438;27;20008;-68
2023/03/03 08:15:45;;;;;;;4.57;2.45;;;3.60;85.10;;;;;;5099877;28;20024;-67
2023/03/03 08:18:27;;;;;;;3.65;1.83;;;3.70;84.90;;;;;;5093232;27;20570;-68
2023/03/03 08:20:54;;;;;;;;;;;3.70;85.20;;;;;;5094332;27;20053;-67
2023/03/03 08:23:20;;;;;;;4.72;1.75;;;3.70;85.30;;;;;;5094595;27;20162;-68
2023/03/03 08:25:47;;;;;;;4.63;2.10;;;3.70;85.20;;;;;;5099285;28;20032;-67
2023/03/03 08:28:14;;;;;;;4.35;1.95;;;3.80;85.00;;;;;;5102717;27;20028;-67
2023/03/03 08:30:40;;;;;;;2.90;1.70;;;3.80;85.00;;;;;;5093217;27;20024;-67
2023/03/03 08:33:06;;;;;;;2.25;1.70;;;3.80;84.90;;;;;;5096736;28;20055;-66
2023/03/03 08:35:31;;;;;;;2.35;1.42;;;3.90;84.70;;;;;;5103217;27;20062;-67
2023/03/03 08:37:57;;;;;;;4.15;1.70;;;4.00;84.50;;;;;;5103128;28;20036;-66
2023/03/03 08:40:23;;;;;;;4.82;2.20;;;4.10;84.30;;;;;;5102548;28;20027;-66
2023/03/03 08:42:48;;;;;;;6.00;2.38;;;4.10;84.30;;;;;;5097957;28;20017;-67
2023/03/03 08:45:14;;;;;;;5.97;2.35;;;4.00;85.00;;;;;;5096914;28;20573;-67
2023/03/03 08:47:41;;;;;;;4.88;2.38;;;4.00;85.00;;;;;;5094516;28;20062;-67
2023/03/03 08:50:07;;;;;;;4.07;2.15;;;4.10;84.90;;;;;;5096112;28;21582;-67
2023/03/03 08:52:33;;;;;;;4.85;1.90;;;4.20;84.80;;;;;;5102013;27;20043;-65
2023/03/03 08:54:59;;;;;;;4.88;2.05;;;4.20;84.40;;;;;;5094925;28;20026;-66
2023/03/03 08:57:24;;;;;;;4.72;2.13;;;4.30;84.30;;;;;;5097625;28;20027;-66
2023/03/03 08:59:50;;;;;;;3.50;1.98;;;4.40;84.10;;;;;;5097641;28;20046;-66
2023/03/03 09:02:16;;;;;;;4.00;2.00;;;4.50;83.90;;;;;;5097218;28;20024;-66
2023/03/03 09:04:42;;;;;;;3.85;2.05;;;4.50;83.60;;;;;;5095158;28;20020;-66
2023/03/03 09:07:07;;;;;;;3.28;1.90;;;4.60;83.50;;;;;;5098368;28;20398;-67
2023/03/03 09:09:36;;;;;;;3.67;1.60;;;4.60;83.30;;;;;;5099987;28;20443;-66
2023/03/03 09:12:17;;;;;;;4.25;2.17;;;4.70;83.80;;;;;;5098514;28;20020;-66
2023/03/03 09:14:43;;;;;;;4.45;1.80;;;4.70;83.10;;;;;;5098191;28;20035;-66
2023/03/03 09:17:27;;;;;;;2.78;1.70;;;4.80;83.10;;;;;;5096711;27;20669;-65
2023/03/03 09:19:58;;;;;;;3.00;1.60;;;4.90;83.00;;;;;;5098174;28;20024;-66
2023/03/03 09:22:26;;;;;;;3.10;1.70;;;4.90;82.60;;;;;;5099551;28;20038;-66
2023/03/03 09:24:56;;;;;;;5.50;1.98;;;5.00;82.70;;;;;;5096644;28;20278;-66
2023/03/03 09:27:33;;;;;;;3.20;1.58;;;5.10;82.60;;;;;;5101388;28;20803;-67
2023/03/03 09:30:35;;;;;;;2.65;1.55;;;5.20;82.40;;;;;;5104060;28;20129;-65
2023/03/03 09:33:16;;;;;;;3.75;1.63;;;5.30;82.20;;;;;;5104344;27;20047;-66
2023/03/03 09:35:41;;;;;;;3.20;1.70;;;5.20;82.30;;;;;;5100606;28;20036;-65
2023/03/03 09:38:15;;;;;;;1.80;1.30;;;5.40;82.30;;;;;;5100761;28;20035;-65
2023/03/03 09:41:02;;;;;;;3.00;1.52;;;5.50;82.00;;;;;;5100492;28;20031;-66
2023/03/03 09:43:53;;;;;;;2.83;1.50;;;5.60;81.50;;;;;;5101030;28;20023;-66
2023/03/03 09:46:49;;;;;;;3.38;1.70;;;5.70;81.30;;;;;;5101487;28;20134;-65
2023/03/03 09:49:18;;;;;;;2.78;1.70;;;5.70;81.00;;;;;;5099086;28;20028;-66
2023/03/03 09:52:14;;;;;;;4.18;1.80;;;5.60;81.00;;;;;;5101653;28;20095;-65
2023/03/03 09:55:12;;;;;;;2.50;1.60;;;5.60;81.60;;;;;;5098557;28;20031;-65
2023/03/03 09:57:55;;;;;;;2.28;1.35;;;5.70;81.20;;;;;;5094165;28;20166;-65
2023/03/03 10:00:45;;;;;;;2.40;1.40;;;5.80;81.00;;;;;;5100814;28;20091;-65
2023/03/03 10:03:48;;;;;;;2.42;1.50;;;6.00;80.80;;;;;;5104665;28;20023;-65
2023/03/03 10:06:41;;;;;;;2.47;1.50;;;6.10;80.30;;;;;;5105706;27;20028;-65
2023/03/03 10:09:21;;;;;;;2.75;1.50;;;6.20;80.10;;;;;;5104905;28;20030;-65
2023/03/03 10:11:56;;;;;;;2.72;1.75;;;6.30;79.90;;;;;;5100220;28;20493;-66
2023/03/03 10:14:36;;;;;;;2.40;1.30;;;6.30;79.80;;;;;;5104381;28;20024;-66
2023/03/03 10:17:23;;;;;;;1.15;1.05;;;6.50;79.70;;;;;;5104042;27;20027;-66
2023/03/03 10:20:11;;;;;;;2.20;1.35;;;6.60;79.10;;;;;;5102742;28;20032;-66
2023/03/03 10:22:53;;;;;;;3.20;1.55;;;6.50;78.60;;;;;;5104260;28;20591;-65
2023/03/03 10:25:21;;;;;;;3.72;1.92;;;6.40;79.20;;;;;;5104853;27;20061;-66
2023/03/03 10:28:18;;;;;;;5.78;2.40;;;6.40;78.80;;;;;;5102485;27;20092;-66
2023/03/03 10:31:07;;;;;;;5.00;1.85;;;6.20;79.30;;;;;;5105717;27;20031;-66
2023/03/03 10:34:06;;;;;;;2.47;1.48;;;6.40;79.60;;;;;;5105515;27;20028;-66
2023/03/03 10:36:38;;;;;;;2.63;1.60;;;6.60;79.30;;;;;;5105360;27;20085;-65
2023/03/03 10:39:36;;;;;;;1.50;1.40;;;6.70;78.90;;;;;;5102797;27;20118;-65
2023/03/03 10:42:40;;;;;;;2.08;1.27;;;6.70;78.60;;;;;;5106893;27;20035;-66
2023/03/03 10:45:27;;;;;;;2.45;1.88;;;6.80;78.60;;;;;;5103554;27;20078;-65
2023/03/03 10:48:25;;;;;;;2.40;1.40;;;6.80;78.60;;;;;;5101946;28;20027;-66
2023/03/03 10:51:06;;;;;;;4.60;1.90;;;6.90;78.50;;;;;;5068109;27;20131;-66
2023/03/03 10:53:57;;;;;;;2.78;1.85;;;6.80;77.70;;;;;;5103677;28;20032;-66
2023/03/03 10:56:54;;;;;;;1.35;1.10;;;6.70;78.20;;;;;;5104147;27;20428;-66
2023/03/03 10:59:31;;;;;;;2.65;1.45;;;6.80;78.40;;;;;;5103672;27;20104;-66
2023/03/03 11:02:00;;;;;;;1.75;1.40;;;6.80;78.30;;;;;;5101502;27;20035;-66
2023/03/03 11:04:35;;;;;;;3.22;1.73;;;7.00;78.20;;;;;;5101893;27;20385;-66
2023/03/03 11:07:11;;;;;;;1.80;1.38;;;7.20;77.90;;;;;;5101227;28;20120;-66
2023/03/03 11:09:43;;;;;;;2.40;1.67;;;7.20;77.60;;;;;;5102458;27;20063;-66
2023/03/03 11:12:36;;;;;;;2.35;1.45;;;7.30;77.40;;;;;;5105217;27;20020;-66
2023/03/03 11:15:18;;;;;;;1.55;1.20;;;7.40;77.20;;;;;;5108408;27;20073;-66
2023/03/03 11:17:43;;;;;;;1.73;1.30;;;7.30;77.00;;;;;;5104188;27;20533;-66
2023/03/03 11:20:19;;;;;;;1.55;1.30;;;7.30;76.90;;;;;;5105634;27;20043;-66
2023/03/03 11:22:49;;;;;;;1.65;1.35;;;7.40;77.20;;;;;;5105644;27;20160;-66
2023/03/03 11:25:14;;;;;;;2.40;1.65;;;7.40;76.90;;;;;;5104057;27;20034;-66
2023/03/03 11:28:10;;;;;;;1.73;1.30;;;7.40;76.90;;;;;;5099108;27;20039;-66
2023/03/03 11:30:46;;;;;;;2.80;1.50;;;7.40;76.80;;;;;;5104353;28;20497;-65
2023/03/03 11:33:21;;;;;;;2.40;1.20;;;7.50;76.20;;;;;;5102440;27;20420;-65
2023/03/03 11:36:05;;;;;;;4.13;1.50;;;7.40;76.50;;;;;;5102699;27;20058;-66
2023/03/03 11:39:06;;;;;;;2.22;1.40;;;7.50;76.70;;;;;;5102305;27;20062;-66
2023/03/03 11:41:36;;;;;;;2.63;1.50;;;7.60;76.60;;;;;;5092501;28;20545;-66
2023/03/03 11:44:24;;;;;;;2.00;1.38;;;7.70;76.30;;;;;;5104719;27;20722;-66
2023/03/03 11:47:22;;;;;;;1.10;1.00;;;7.80;76.20;;;;;;5100905;28;20149;-66
2023/03/03 11:49:58;;;;;;;1.23;1.10;;;7.90;75.90;;;;;;5089660;27;20036;-66
2023/03/03 11:52:48;;;;;;;1.95;1.60;;;8.00;75.90;;;;;;5107535;27;20413;-65
2023/03/03 11:55:33;;;;;;;2.10;1.60;;;8.00;74.60;;;;;;5105186;27;20024;-65
2023/03/03 11:58:23;;;;;;;2.45;1.50;;;7.90;74.10;;;;;;5102817;28;20678;-66
2023/03/03 12:00:51;;;;;;;2.80;1.70;;;7.90;74.70;;;;;;5102456;27;20478;-66
2023/03/03 12:03:38;;;;;;;2.67;1.58;;;8.00;74.60;;;;;;5100171;27;20682;-66
2023/03/03 12:06:22;;;;;;;1.90;1.27;;;8.00;74.10;;;;;;5100190;28;20059;-66
2023/03/03 12:08:59;;;;;;;3.17;1.38;;;8.20;74.60;;;;;;5099214;28;20020;-66
2023/03/03 12:12:09;;;;;;;2.40;1.42;;;8.40;74.30;;;;;;5100385;28;20114;-66
2023/03/03 12:15:01;;;;;;;1.52;1.10;;;8.60;72.80;;;;;;5039724;28;20025;-66
2023/03/03 12:17:26;;;;;;;1.88;1.20;;;8.60;73.60;;;;;;5102780;28;20020;-66
2023/03/03 12:20:10;;;;;;;1.15;1.05;;;8.70;73.50;;;;;;5103298;28;20034;-66
2023/03/03 12:23:11;;;;;;;1.55;1.33;;;8.70;73.70;;;;;;5102710;28;20031;-66
2023/03/03 12:25:42;;;;;;;2.28;1.20;;;8.80;73.60;;;;;;5100297;27;20395;-66
2023/03/03 12:28:23;;;;;;;2.30;1.50;;;9.00;73.20;;;;;;5100620;27;20481;-66
2023/03/03 12:31:15;;;;;;;1.20;1.10;;;9.10;72.10;;;;;;5099326;28;20016;-66
2023/03/03 12:34:08;;;;;;;2.15;1.17;;;9.10;72.20;;;;;;5101254;28;20032;-66
2023/03/03 12:36:54;;;;;;;2.10;1.30;;;9.40;71.40;;;;;;5101777;28;20021;-66
2023/03/03 12:39:49;;;;;;;1.83;1.20;;;9.30;71.60;;;;;;5097776;27;20039;-66
2023/03/03 12:42:36;;;;;;;2.22;1.33;;;9.70;71.10;;;;;;5103732;28;20031;-66
2023/03/03 12:45:23;;;;;;;2.08;1.20;;;9.90;71.10;;;;;;5104231;27;20150;-66
2023/03/03 12:48:15;;;;;;;2.20;1.38;;;10.10;70.70;;;;;;5101174;28;20035;-66
2023/03/03 12:51:05;;;;;;;1.00;0.80;;;10.10;70.40;;;;;;5102610;27;20355;-66
2023/03/03 12:53:55;;;;;;;1.13;1.02;;;9.90;70.20;;;;;;5101490;28;20066;-66
2023/03/03 12:56:34;;;;;;;1.10;1.00;;;10.00;70.20;;;;;;5105106;28;20027;-66
2023/03/03 12:59:37;;;;;;;2.08;1.13;;;10.10;70.50;;;;;;5101402;28;20354;-66
2023/03/03 13:02:33;;;;;;;1.38;0.95;;;10.00;68.60;;;;;;5099544;27;20031;-66
2023/03/03 13:05:23;;;;;;;1.55;1.23;;;10.00;69.10;;;;;;5104139;28;20051;-66
2023/03/03 13:08:22;;;;;;;2.03;1.63;;;10.20;69.40;;;;;;5099576;28;20114;-67
2023/03/03 13:11:20;;;;;;;2.42;1.20;;;10.40;68.20;;;;;;5099074;28;20540;-66
2023/03/03 13:13:48;;;;;;;1.23;1.13;;;10.40;68.10;;;;;;5083008;28;20028;-67
2023/03/03 13:16:20;;;;;;;1.17;1.05;;;10.40;68.40;;;;;;5101230;28;20133;-69
2023/03/03 13:19:05;;;;;;;1.17;1.08;;;10.30;68.20;;;;;;5096804;28;20028;-67
2023/03/03 13:21:34;;;;;;;1.40;1.20;;;10.30;69.00;;;;;;5099783;28;20454;-67
2023/03/03 13:24:33;;;;;;;1.70;1.27;;;10.40;69.10;;;;;;5099816;28;20446;-66
2023/03/03 13:27:11;;;;;;;0.85;0.85;;;10.40;68.00;;;;;;5100343;28;20032;-67